createdAt,value
2019-05-17T10:45:15.134Z,19.66
2019-05-17T10:47:50.262Z,19.45
2019-05-17T10:50:23.929Z,19.28
2019-05-17T10:53:00.198Z,19.12
2019-05-17T10:55:32.825Z,19.03
2019-05-17T10:58:06.273Z,18.88
2019-05-17T11:00:41.442Z,18.77
2019-05-17T11:03:15.152Z,18.69
2019-05-17T11:05:50.261Z,18.59
2019-05-17T11:08:23.613Z,18.49
2019-05-17T11:10:59.433Z,18.39
2019-05-17T11:13:32.135Z,18.32
2019-05-17T11:16:05.536Z,18.91
2019-05-17T11:18:38.892Z,22.24
2019-05-17T11:21:13.099Z,22.65
2019-05-17T11:23:46.482Z,21.68
2019-05-17T11:26:19.875Z,20.96
2019-05-17T11:28:53.227Z,20.48
2019-05-17T11:31:26.629Z,20.15
2019-05-17T11:34:00.142Z,19.90
2019-05-17T11:36:33.582Z,19.70
2019-05-17T11:39:08.559Z,19.50
2019-05-17T11:41:42.356Z,19.38
2019-05-17T11:44:15.970Z,19.20
2019-05-17T11:46:50.226Z,19.05
2019-05-17T11:49:24.460Z,18.97
2019-05-17T11:51:58.308Z,18.86
2019-05-17T11:54:31.939Z,18.77
2019-05-17T11:57:05.415Z,18.72
2019-05-17T11:59:38.859Z,18.62
2019-05-17T12:02:15.781Z,18.55
2019-05-17T12:04:49.260Z,18.46
2019-05-17T12:07:23.062Z,18.39
2019-05-17T12:09:57.469Z,18.32
2019-05-17T12:12:31.027Z,18.28
2019-05-17T12:15:04.510Z,18.18
2019-05-17T12:17:37.984Z,18.11
2019-05-17T12:20:14.422Z,18.08
2019-05-17T12:22:47.831Z,18.00
2019-05-17T12:25:21.432Z,17.91
2019-05-17T12:27:54.858Z,17.89
2019-05-17T12:30:28.275Z,20.59
2019-05-17T12:33:01.625Z,21.38
2019-05-17T12:35:35.023Z,20.53
2019-05-17T12:38:08.420Z,19.90
2019-05-17T12:40:41.868Z,19.44
2019-05-17T12:43:15.316Z,19.12
2019-05-17T12:46:00.112Z,18.87
2019-05-17T12:48:25.738Z,18.63
2019-05-17T12:50:59.181Z,18.39
2019-05-17T12:53:33.985Z,18.24
2019-05-17T12:56:07.506Z,20.25
2019-05-17T12:58:41.953Z,23.37
2019-05-17T13:01:15.376Z,23.30
2019-05-17T13:03:48.848Z,22.06
2019-05-17T13:06:23.729Z,21.14
2019-05-17T13:08:57.161Z,20.56
2019-05-17T13:11:30.591Z,20.14
2019-05-17T13:14:04.040Z,19.80
2019-05-17T13:16:37.505Z,19.53
2019-05-17T13:19:11.473Z,19.30
2019-05-17T13:21:45.108Z,19.10
2019-05-17T13:24:18.598Z,18.91
2019-05-17T13:26:52.127Z,18.72
2019-05-17T13:29:25.604Z,18.59
2019-05-17T13:31:59.067Z,18.45
2019-05-17T13:34:32.555Z,18.29
2019-05-17T13:37:06.276Z,20.48
2019-05-17T13:39:41.070Z,21.53
2019-05-17T13:42:14.477Z,20.76
2019-05-17T13:44:47.872Z,20.14
2019-05-17T13:47:21.311Z,19.76
2019-05-17T13:49:54.708Z,19.49
2019-05-17T13:52:28.135Z,19.28
2019-05-17T13:55:02.400Z,19.12
2019-05-17T13:57:36.115Z,19.01
2019-05-17T14:00:11.557Z,18.93
2019-05-17T14:02:44.978Z,18.83
2019-05-17T14:05:18.614Z,18.69
2019-05-17T14:07:52.234Z,18.59
2019-05-17T14:10:28.715Z,18.90
2019-05-17T14:13:00.726Z,22.17
2019-05-17T14:15:34.369Z,22.61
2019-05-17T14:18:08.441Z,21.73
2019-05-17T14:20:41.907Z,21.04
2019-05-17T14:23:15.344Z,20.62
2019-05-17T14:25:48.776Z,20.33
2019-05-17T14:28:22.258Z,20.13
2019-05-17T14:30:57.065Z,19.94
2019-05-17T14:33:31.577Z,19.83
2019-05-17T14:36:04.952Z,19.69
2019-05-17T14:38:38.453Z,19.56
2019-05-17T14:41:11.880Z,19.52
2019-05-17T14:43:45.317Z,19.42
2019-05-17T14:46:18.759Z,19.34
2019-05-17T14:48:52.267Z,19.31
2019-05-17T14:51:25.699Z,19.25
2019-05-17T14:53:59.158Z,19.20
2019-05-17T14:56:32.617Z,19.15
2019-05-17T14:59:06.431Z,19.10
2019-05-17T15:27:24.758Z,18.79
2019-05-17T15:29:58.231Z,18.72
2019-05-17T15:32:31.675Z,18.60
2019-05-17T15:35:05.672Z,18.52
2019-05-17T15:37:39.089Z,19.20
2019-05-17T15:40:12.753Z,22.48
2019-05-17T15:42:46.215Z,22.89
2019-05-17T15:45:20.050Z,21.96
2019-05-17T15:47:53.472Z,21.24
2019-05-17T15:50:26.943Z,20.82
2019-05-17T15:53:00.353Z,20.51
2019-05-17T15:55:33.759Z,20.25
2019-05-17T15:58:07.221Z,20.08
2019-05-17T16:00:40.760Z,19.94
2019-05-17T16:03:14.265Z,19.76
2019-05-17T16:05:47.718Z,19.66
2019-05-17T16:08:21.498Z,19.56
2019-05-17T16:10:54.924Z,19.45
2019-05-17T16:13:28.852Z,19.34
2019-05-17T16:16:02.297Z,19.28
2019-05-17T16:18:36.003Z,19.17
2019-05-17T16:21:09.581Z,19.08
2019-05-17T16:23:43.055Z,19.01
2019-05-17T16:26:16.487Z,18.97
2019-05-17T16:28:49.930Z,18.90
2019-05-17T16:31:23.386Z,18.83
2019-05-17T16:33:57.826Z,18.77
2019-05-17T16:36:31.252Z,18.70
2019-05-17T16:39:08.319Z,18.67
2019-05-17T16:41:40.724Z,18.63
2019-05-17T16:44:14.755Z,18.59
2019-05-17T16:46:51.821Z,18.58
2019-05-17T16:49:43.627Z,18.52
2019-05-17T16:52:17.826Z,18.49
2019-05-17T16:54:52.727Z,18.46
2019-05-17T16:57:26.493Z,21.01
2019-05-17T17:00:00.451Z,21.99
2019-05-17T17:02:34.027Z,21.22
2019-05-17T17:05:07.834Z,20.64
2019-05-17T17:07:41.249Z,20.27
2019-05-17T17:10:15.093Z,20.03
2019-05-17T17:12:48.797Z,19.83
2019-05-17T17:15:22.829Z,19.65
2019-05-17T17:17:56.262Z,19.52
2019-05-17T17:20:29.984Z,19.39
2019-05-17T17:23:03.448Z,19.30
2019-05-17T17:25:36.881Z,19.21
2019-05-17T17:28:10.288Z,19.10
2019-05-17T17:30:43.750Z,19.01
2019-05-17T17:33:17.603Z,18.90
2019-05-17T17:35:51.034Z,18.82
2019-05-17T17:38:24.462Z,18.76
2019-05-17T17:40:57.891Z,20.84
2019-05-17T17:43:31.337Z,22.00
2019-05-17T17:46:04.751Z,21.24
2019-05-17T17:48:38.150Z,20.66
2019-05-17T17:51:11.818Z,20.25
2019-05-17T17:53:45.235Z,19.97
2019-05-17T17:56:18.631Z,19.74
2019-05-17T17:58:53.048Z,19.59
2019-05-17T18:01:26.487Z,19.41
2019-05-17T18:03:59.937Z,19.24
2019-05-17T18:06:33.385Z,19.10
2019-05-17T18:09:07.690Z,21.22
2019-05-17T18:11:41.107Z,24.31
2019-05-17T18:14:14.569Z,24.17
2019-05-17T18:16:48.026Z,22.93
2019-05-17T18:19:21.649Z,22.01
2019-05-17T18:21:55.082Z,21.41
2019-05-17T18:24:28.472Z,20.97
2019-05-17T18:27:01.906Z,20.60
2019-05-17T18:29:35.315Z,20.27
2019-05-17T18:32:08.744Z,19.96
2019-05-17T18:34:42.847Z,19.70
2019-05-17T18:37:16.295Z,19.45
2019-05-17T18:39:49.710Z,19.24
2019-05-17T18:42:23.110Z,19.00
2019-05-17T18:44:56.594Z,21.00
2019-05-17T18:47:30.072Z,24.07
2019-05-17T18:50:03.515Z,23.89
2019-05-17T18:52:37.114Z,22.55
2019-05-17T18:55:10.606Z,21.58
2019-05-17T18:57:44.164Z,20.94
2019-05-17T19:00:18.547Z,20.48
2019-05-17T19:02:52.061Z,20.05
2019-05-17T19:05:25.504Z,19.73
2019-05-17T19:07:59.137Z,19.41
2019-05-17T19:10:32.619Z,19.11
2019-05-17T19:13:06.068Z,18.87
2019-05-17T19:15:39.507Z,18.59
2019-05-17T19:18:13.001Z,20.70
2019-05-17T19:20:47.524Z,23.78
2019-05-17T19:23:21.088Z,23.58
2019-05-17T19:25:54.538Z,22.23
2019-05-17T19:28:28.216Z,21.24
2019-05-17T19:31:04.068Z,20.58
2019-05-17T19:33:39.238Z,20.04
2019-05-17T19:36:12.835Z,19.62
2019-05-17T19:38:48.180Z,19.30
2019-05-17T19:41:21.660Z,18.97
2019-05-17T19:43:57.115Z,18.69
2019-05-17T19:46:30.549Z,18.39
2019-05-17T19:49:05.016Z,20.51
2019-05-17T19:51:38.494Z,23.59
2019-05-17T19:54:11.961Z,23.33
2019-05-17T19:56:45.332Z,21.95
2019-05-17T19:59:18.831Z,20.96
2019-05-17T20:01:52.286Z,20.27
2019-05-17T20:04:25.784Z,19.77
2019-05-17T20:06:59.162Z,19.35
2019-05-17T20:09:32.623Z,19.01
2019-05-17T20:12:06.094Z,18.66
2019-05-17T20:14:39.520Z,18.33
2019-05-17T20:17:12.973Z,20.27
2019-05-17T20:19:46.483Z,23.38
2019-05-17T20:22:19.933Z,23.13
2019-05-17T20:24:53.422Z,21.74
2019-05-17T20:27:26.913Z,20.80
2019-05-17T20:30:00.507Z,20.10
2019-05-17T20:32:35.461Z,19.59
2019-05-17T20:35:10.351Z,19.15
2019-05-17T20:37:43.754Z,18.79
2019-05-17T20:40:18.088Z,18.42
2019-05-17T20:42:51.512Z,18.11
2019-05-17T20:45:33.263Z,20.18
2019-05-17T20:48:10.083Z,23.34
2019-05-17T20:50:43.566Z,22.96
2019-05-17T20:53:19.216Z,21.58
2019-05-17T20:55:52.059Z,20.62
2019-05-17T20:58:25.493Z,19.91
2019-05-17T21:00:59.067Z,19.37
2019-05-17T21:03:32.431Z,18.95
2019-05-17T21:06:06.488Z,18.55
2019-05-17T21:08:46.002Z,18.18
2019-05-17T21:11:15.279Z,20.10
2019-05-17T21:13:48.723Z,23.14
2019-05-17T21:16:22.239Z,22.90
2019-05-17T21:18:55.659Z,21.53
2019-05-17T21:21:29.119Z,20.52
2019-05-17T21:24:02.615Z,19.79
2019-05-17T21:26:36.125Z,19.27
2019-05-17T21:29:09.535Z,18.83
2019-05-17T21:31:42.944Z,18.42
2019-05-17T21:34:16.325Z,18.05
2019-05-17T21:36:49.804Z,17.74
2019-05-17T21:39:24.253Z,19.93
2019-05-17T21:41:57.727Z,22.96
2019-05-17T21:44:31.107Z,22.73
2019-05-17T21:47:05.205Z,21.35
2019-05-17T21:49:38.749Z,20.29
2019-05-17T21:52:13.088Z,19.53
2019-05-17T21:54:46.590Z,19.01
2019-05-17T21:57:20.390Z,18.55
2019-05-17T21:59:53.830Z,18.17
2019-05-17T22:02:27.290Z,17.80
2019-05-17T22:05:00.718Z,19.84
2019-05-17T22:07:34.233Z,22.97
2019-05-17T22:10:07.819Z,22.69
2019-05-17T22:12:41.281Z,21.24
2019-05-17T22:15:15.768Z,20.20
2019-05-17T22:17:49.217Z,19.46
2019-05-17T22:20:22.677Z,18.90
2019-05-17T22:22:55.951Z,18.41
2019-05-17T22:25:29.343Z,18.00
2019-05-17T22:28:03.065Z,17.65
2019-05-17T22:30:36.426Z,19.63
2019-05-17T22:33:09.715Z,22.59
2019-05-17T22:35:43.064Z,22.34
2019-05-17T22:38:16.436Z,20.89
2019-05-17T22:40:49.740Z,19.86
2019-05-17T22:43:23.125Z,19.17
2019-05-17T22:45:56.328Z,18.59
2019-05-17T22:48:29.705Z,18.11
2019-05-17T22:51:03.030Z,17.73
2019-05-17T22:53:36.367Z,17.41
2019-05-17T22:56:09.837Z,19.39
2019-05-17T22:58:44.552Z,22.35
2019-05-17T23:01:17.793Z,22.06
2019-05-17T23:03:51.212Z,20.68
2019-05-17T23:06:24.600Z,19.62
2019-05-17T23:08:58.031Z,18.93
2019-05-17T23:11:31.242Z,18.35
2019-05-17T23:14:04.692Z,17.90
2019-05-17T23:16:50.581Z,17.52
2019-05-17T23:19:13.107Z,19.48
2019-05-17T23:21:46.393Z,22.54
2019-05-17T23:24:20.787Z,22.23
2019-05-17T23:26:54.158Z,20.77
2019-05-17T23:29:27.430Z,19.72
2019-05-17T23:32:00.708Z,18.95
2019-05-17T23:34:34.083Z,18.32
2019-05-17T23:37:07.882Z,17.87
2019-05-17T23:39:41.232Z,17.49
2019-05-17T23:42:14.501Z,19.30
2019-05-17T23:44:48.988Z,22.23
2019-05-17T23:47:22.333Z,22.00
2019-05-17T23:49:55.723Z,20.55
2019-05-17T23:52:29.075Z,19.53
2019-05-17T23:55:02.548Z,18.83
2019-05-17T23:57:35.992Z,18.20
